Aviation Digital Data Service (ADDS)

Output produced by METARs form (1523 UTC 15 October 2018)
found at http://aviationweather.gov/metar/data/
 
KDFW 151458Z 1515/1618 35019KT 5SM RA BR OVC012 
     TEMPO 1515/1517 2SM +RA 
     FM151700 36017KT P6SM -RA OVC016 
     FM152200 36017KT P6SM -RA OVC025 
     FM160900 01016KT 3SM RA OVC014 
     FM161500 36015KT 6SM -RA OVC017